Time;durP1;ratioP1;P1;durP2;ratioP2;P2;SDS_P1;SDS_P2;PMS_P1;PMS_P2;Temp;Humidity;BMP_temperature;BMP_pressure;BME280_temperature;BME280_humidity;BME280_pressure;Samples;Min_cycle;Max_cycle;Signal;HPM_P1;HPM_P2
2023/04/25 00:01:05;;;;;;;6.47;1.25;;;;;;;3.88;62.99;100183.78;5044062;28;20102;-44
2023/04/25 00:03:32;;;;;;;9.40;1.30;;;;;;;3.85;63.45;100184.56;5059222;28;21250;-42
2023/04/25 00:06:01;;;;;;;3.30;1.65;;;;;;;3.83;63.67;100181.09;5043354;28;20135;-43
2023/04/25 00:08:30;;;;;;;3.53;0.85;;;;;;;3.77;63.92;100176.66;5046784;28;20068;-43
2023/04/25 00:10:57;;;;;;;4.47;1.17;;;;;;;3.81;63.32;100187.84;5044082;28;20485;-43
2023/04/25 00:13:25;;;;;;;5.30;1.48;;;;;;;3.77;63.68;100186.91;5061202;28;20101;-46
2023/04/25 00:15:53;;;;;;;2.58;0.95;;;;;;;3.79;63.93;100185.28;5049995;28;20794;-42
2023/04/25 00:18:20;;;;;;;2.50;0.68;;;;;;;3.75;64.05;100188.56;5056881;28;20229;-44
2023/04/25 00:20:46;;;;;;;5.07;1.58;;;;;;;3.76;64.12;100195.44;5050440;28;20073;-44
2023/04/25 00:23:17;;;;;;;1.60;0.68;;;;;;;3.76;64.61;100185.19;5054854;28;20075;-44
2023/04/25 00:25:44;;;;;;;2.15;0.75;;;;;;;3.76;64.77;100184.31;5072625;28;20139;-44
2023/04/25 00:28:12;;;;;;;6.53;1.02;;;;;;;3.74;63.84;100179.13;5057590;28;20048;-41
2023/04/25 00:30:39;;;;;;;4.22;1.33;;;;;;;3.74;64.34;100176.56;5058140;28;20126;-43
2023/04/25 00:33:07;;;;;;;9.73;1.92;;;;;;;3.72;64.25;100176.53;5051824;28;20206;-46
2023/04/25 00:35:34;;;;;;;4.85;1.17;;;;;;;3.71;63.68;100181.63;5055333;28;20136;-42
2023/04/25 00:38:01;;;;;;;8.70;1.38;;;;;;;3.67;64.11;100180.66;5044748;28;20878;-45
2023/04/25 00:40:28;;;;;;;8.25;1.58;;;;;;;3.65;64.23;100181.47;5029725;28;20068;-44
2023/04/25 00:42:54;;;;;;;3.83;1.42;;;;;;;3.62;63.71;100182.25;5040020;28;20052;-42
2023/04/25 00:45:21;;;;;;;2.78;0.93;;;;;;;3.60;63.29;100182.22;5039984;28;20103;-45
2023/04/25 00:47:48;;;;;;;14.18;1.42;;;;;;;3.55;64.63;100186.31;5052204;28;20157;-44
2023/04/25 00:50:14;;;;;;;8.45;1.23;;;;;;;3.52;63.98;100188.81;5046387;28;20049;-46
2023/04/25 00:52:43;;;;;;;7.35;1.10;;;;;;;3.50;64.20;100187.88;5042622;28;20139;-41
2023/04/25 00:55:12;;;;;;;5.70;0.93;;;;;;;3.44;64.17;100190.25;5038257;28;20102;-42
2023/04/25 00:57:39;;;;;;;3.58;1.30;;;;;;;3.41;64.14;100187.63;5040229;28;20147;-41
2023/04/25 01:00:06;;;;;;;4.47;0.70;;;;;;;3.36;64.94;100178.94;5036979;28;20107;-44
2023/04/25 01:02:35;;;;;;;6.90;2.17;;;;;;;3.32;64.46;100183.94;5041457;28;21982;-45
2023/04/25 01:05:03;;;;;;;3.55;1.25;;;;;;;3.32;64.88;100188.22;5045124;28;21132;-42
2023/04/25 01:07:30;;;;;;;4.43;0.80;;;;;;;3.29;64.76;100180.44;5045855;28;20052;-45
2023/04/25 01:09:56;;;;;;;5.45;1.30;;;;;;;3.27;64.93;100189.78;5045553;28;20052;-44
2023/04/25 01:12:24;;;;;;;2.05;1.40;;;;;;;3.24;64.33;100185.44;5046852;28;20111;-43
2023/04/25 01:14:50;;;;;;;5.15;1.83;;;;;;;3.22;65.00;100187.94;5046284;28;20060;-45
2023/04/25 01:17:17;;;;;;;9.68;1.95;;;;;;;3.20;64.33;100193.84;5036750;28;20461;-45
2023/04/25 01:19:45;;;;;;;7.07;1.67;;;;;;;3.18;64.13;100190.38;5026317;28;20076;-44
2023/04/25 01:22:14;;;;;;;3.17;1.60;;;;;;;3.14;64.17;100189.41;5028300;28;20080;-44
2023/04/25 01:24:41;;;;;;;1.90;1.00;;;;;;;3.12;64.42;100190.19;5074506;28;20048;-43
2023/04/25 01:27:09;;;;;;;8.18;1.27;;;;;;;3.11;64.20;100188.47;5069616;28;20049;-43
2023/04/25 01:29:36;;;;;;;6.80;2.35;;;;;;;3.08;65.48;100192.66;5077930;28;20040;-42
2023/04/25 01:32:05;;;;;;;6.15;1.40;;;;;;;3.07;65.06;100190.91;5066780;28;20036;-41
2023/04/25 01:34:32;;;;;;;3.20;1.08;;;;;;;3.04;65.20;100188.25;5065420;28;20063;-42
2023/04/25 01:37:01;;;;;;;3.60;1.10;;;;;;;2.99;64.85;100192.38;5078688;28;20058;-46
2023/04/25 01:39:28;;;;;;;5.50;1.63;;;;;;;2.99;65.67;100194.06;5073238;28;20052;-44
2023/04/25 01:41:54;;;;;;;6.75;2.33;;;;;;;2.97;64.71;100191.44;5074091;28;20040;-42
2023/04/25 01:44:23;;;;;;;4.80;1.35;;;;;;;2.95;65.19;100195.66;5075870;28;20048;-41
2023/04/25 01:46:49;;;;;;;5.47;1.25;;;;;;;2.94;64.39;100201.63;5064023;28;20102;-42
2023/04/25 01:49:16;;;;;;;6.55;1.83;;;;;;;2.92;64.61;100203.25;5067664;28;20086;-42
2023/04/25 01:51:43;;;;;;;4.75;1.75;;;;;;;2.89;64.54;100209.13;5069380;28;20048;-44
2023/04/25 01:54:11;;;;;;;10.52;1.90;;;;;;;2.85;65.03;100214.09;5065395;28;20727;-45
2023/04/25 01:56:38;;;;;;;4.30;1.45;;;;;;;2.82;64.28;100218.31;5070964;28;20146;-44
2023/04/25 01:59:05;;;;;;;5.22;1.48;;;;;;;2.78;64.46;100210.50;5065503;28;20044;-42
2023/04/25 02:01:32;;;;;;;6.05;1.38;;;;;;;2.75;64.12;100216.38;5070327;28;20056;-42
2023/04/25 02:03:59;;;;;;;3.65;1.25;;;;;;;2.72;64.32;100211.16;5065740;28;20055;-41
2023/04/25 02:06:26;;;;;;;4.05;1.90;;;;;;;2.69;65.11;100211.06;5064379;28;20060;-42
2023/04/25 02:08:53;;;;;;;7.30;1.48;;;;;;;2.66;64.88;100205.84;5066384;28;20048;-43
2023/04/25 02:11:19;;;;;;;3.45;1.92;;;;;;;2.64;65.32;100212.63;5066505;28;20396;-42
2023/04/25 02:13:46;;;;;;;5.40;1.42;;;;;;;2.62;64.49;100209.13;5066594;28;20122;-45
2023/04/25 02:16:13;;;;;;;3.40;1.50;;;;;;;2.60;65.21;100210.78;5067715;28;20105;-42
2023/04/25 02:18:40;;;;;;;3.90;1.63;;;;;;;2.57;65.20;100212.41;5065433;28;20076;-41
2023/04/25 02:21:06;;;;;;;3.92;1.08;;;;;;;2.53;64.69;100214.81;5069033;28;20144;-43
2023/04/25 02:23:33;;;;;;;6.18;1.55;;;;;;;2.52;64.52;100213.94;5065955;28;20577;-45
2023/04/25 02:26:00;;;;;;;1.90;1.35;;;;;;;2.48;65.51;100207.00;5072181;28;20056;-44
2023/04/25 02:28:26;;;;;;;4.97;1.23;;;;;;;2.43;65.18;100214.50;5066700;28;20492;-43
2023/04/25 02:30:53;;;;;;;4.72;1.20;;;;;;;2.43;65.19;100218.75;5076038;28;20052;-42
2023/04/25 02:33:20;;;;;;;4.07;1.15;;;;;;;2.40;65.86;100222.06;5067440;28;20063;-42
2023/04/25 02:35:47;;;;;;;7.93;1.40;;;;;;;2.38;65.47;100226.28;5071057;28;20106;-44
2023/04/25 02:38:14;;;;;;;7.20;1.23;;;;;;;2.34;65.24;100224.44;5070766;28;20048;-46
2023/04/25 02:40:41;;;;;;;5.50;1.38;;;;;;;2.34;65.54;100221.00;5070668;28;20048;-43
2023/04/25 02:43:07;;;;;;;7.22;2.47;;;;;;;2.31;65.59;100225.22;5072935;28;20072;-44
2023/04/25 02:45:34;;;;;;;7.82;1.70;;;;;;;2.31;65.29;100225.22;5072750;28;20043;-46
2023/04/25 02:48:02;;;;;;;7.80;1.85;;;;;;;2.30;65.98;100223.44;5071213;28;20182;-45
2023/04/25 02:50:29;;;;;;;6.82;2.00;;;;;;;2.28;65.05;100229.34;5071935;28;20434;-44
2023/04/25 02:52:55;;;;;;;7.07;1.30;;;;;;;2.26;64.93;100225.88;5065434;28;20051;-43
2023/04/25 02:55:22;;;;;;;2.75;1.08;;;;;;;2.23;65.45;100220.66;5074292;28;20708;-44
2023/04/25 02:57:51;;;;;;;7.28;1.63;;;;;;;2.21;65.36;100215.47;5066066;28;20048;-45
2023/04/25 03:00:18;;;;;;;4.38;1.33;;;;;;;2.20;65.39;100216.31;5066835;28;20049;-45
2023/04/25 03:02:45;;;;;;;5.18;1.35;;;;;;;2.18;65.40;100217.94;5066624;28;20044;-44
2023/04/25 03:05:12;;;;;;;2.85;0.93;;;;;;;2.15;66.21;100212.69;5063290;28;20052;-43
2023/04/25 03:07:39;;;;;;;9.05;2.30;;;;;;;2.13;65.77;100214.34;5073099;28;20049;-43
2023/04/25 03:10:07;;;;;;;4.18;1.98;;;;;;;2.11;65.36;100213.41;5071444;28;20078;-44
2023/04/25 03:12:33;;;;;;;3.55;1.30;;;;;;;2.09;66.02;100217.63;5067227;28;20036;-46
2023/04/25 03:15:00;;;;;;;8.43;1.42;;;;;;;2.07;66.18;100219.25;5063514;28;20072;-41
2023/04/25 03:17:27;;;;;;;3.25;1.52;;;;;;;2.05;65.36;100227.72;5069865;28;20109;-46
2023/04/25 03:19:55;;;;;;;4.88;1.10;;;;;;;2.03;65.54;100239.56;5070974;28;20044;-43
2023/04/25 03:22:22;;;;;;;5.18;1.50;;;;;;;2.00;65.14;100234.38;5062682;28;20053;-44
2023/04/25 03:24:49;;;;;;;3.47;1.27;;;;;;;1.98;65.99;100240.22;5067893;28;20543;-41
2023/04/25 03:27:17;;;;;;;5.03;0.93;;;;;;;1.95;66.54;100240.97;5068537;28;20044;-42
2023/04/25 03:29:43;;;;;;;2.92;0.77;;;;;;;1.92;65.41;100245.97;5056352;28;20401;-43
2023/04/25 03:32:10;;;;;;;5.28;1.48;;;;;;;1.91;66.55;100241.69;5071087;28;20177;-42
2023/04/25 03:34:37;;;;;;;6.30;1.73;;;;;;;1.89;66.10;100248.44;5065502;28;20056;-43
2023/04/25 03:37:03;;;;;;;6.95;1.17;;;;;;;1.89;65.68;100251.00;5071530;28;20071;-44
2023/04/25 03:39:30;;;;;;;5.80;1.77;;;;;;;1.88;65.78;100254.34;5066967;28;20041;-44
2023/04/25 03:41:57;;;;;;;3.55;1.05;;;;;;;1.86;66.03;100250.88;5071656;28;20049;-44
2023/04/25 03:44:24;;;;;;;11.27;1.70;;;;;;;1.84;65.53;100247.41;5068201;28;20589;-44
2023/04/25 03:46:50;;;;;;;7.13;2.05;;;;;;;1.82;66.12;100254.16;5079504;28;20048;-41
2023/04/25 03:49:17;;;;;;;6.82;1.90;;;;;;;1.79;66.14;100260.88;5069013;28;20073;-43
2023/04/25 03:51:45;;;;;;;3.88;1.15;;;;;;;1.77;65.64;100267.63;5052896;28;20049;-47
2023/04/25 03:54:11;;;;;;;4.53;1.30;;;;;;;1.72;66.56;100274.22;5075562;28;20060;-43
2023/04/25 03:56:38;;;;;;;9.20;1.33;;;;;;;1.69;66.89;100271.56;5077683;28;20056;-41
2023/04/25 03:59:05;;;;;;;4.13;1.15;;;;;;;1.65;65.86;100269.69;5073531;28;20052;-44
2023/04/25 04:01:31;;;;;;;4.07;1.48;;;;;;;1.64;67.24;100270.53;5068011;28;20361;-45
2023/04/25 04:03:58;;;;;;;3.25;1.20;;;;;;;1.62;66.39;100267.06;5073301;28;20083;-43
2023/04/25 04:06:25;;;;;;;5.30;0.98;;;;;;;1.59;66.58;100272.03;5067273;28;20134;-45
2023/04/25 04:08:52;;;;;;;5.35;1.83;;;;;;;1.60;67.24;100277.22;5071243;28;20048;-41
2023/04/25 04:11:18;;;;;;;10.30;1.55;;;;;;;1.59;67.53;100275.44;5068165;28;20154;-45
2023/04/25 04:13:45;;;;;;;3.08;1.42;;;;;;;1.59;66.22;100269.50;5068357;28;20136;-44
2023/04/25 04:16:11;;;;;;;4.28;1.48;;;;;;;1.57;67.47;100283.88;5062987;28;20559;-44
2023/04/25 04:18:38;;;;;;;6.78;0.90;;;;;;;1.54;66.74;100285.50;5070200;28;20056;-45
2023/04/25 04:21:04;;;;;;;5.72;1.75;;;;;;;1.51;66.93;100285.38;5067567;28;20079;-47
2023/04/25 04:23:31;;;;;;;6.55;1.77;;;;;;;1.52;67.19;100287.13;5068572;28;20045;-41
2023/04/25 04:25:58;;;;;;;6.03;1.70;;;;;;;1.50;66.85;100291.31;5069444;28;20461;-44
2023/04/25 04:28:26;;;;;;;5.38;1.38;;;;;;;1.45;67.04;100290.25;5070079;28;20040;-46
2023/04/25 04:30:53;;;;;;;5.97;1.63;;;;;;;1.43;68.20;100275.69;5078668;28;20048;-43
2023/04/25 04:33:19;;;;;;;6.55;1.33;;;;;;;1.42;68.20;100285.03;5067948;28;20048;-42
2023/04/25 04:35:46;;;;;;;4.28;1.92;;;;;;;1.41;67.74;100294.38;5076884;28;20121;-49
2023/04/25 04:38:15;;;;;;;5.05;1.45;;;;;;;1.38;67.34;100304.47;5072121;28;20040;-44
2023/04/25 04:40:43;;;;;;;4.40;1.33;;;;;;;1.39;67.93;100300.25;5068951;28;20083;-43
2023/04/25 04:43:10;;;;;;;5.05;1.13;;;;;;;1.38;67.50;100298.47;5079403;28;20361;-44
2023/04/25 04:45:38;;;;;;;8.57;2.17;;;;;;;1.36;68.27;100295.00;5079376;28;20063;-43
2023/04/25 04:48:05;;;;;;;7.00;1.60;;;;;;;1.37;68.37;100301.84;5065770;28;20090;-47
2023/04/25 04:50:32;;;;;;;5.13;1.45;;;;;;;1.34;67.43;100299.16;5072308;28;20048;-42
2023/04/25 04:52:59;;;;;;;2.88;1.23;;;;;;;1.34;67.66;100292.38;5072689;28;20044;-44
2023/04/25 04:55:26;;;;;;;6.05;1.30;;;;;;;1.35;67.54;100293.28;5070365;28;20049;-45
2023/04/25 04:57:53;;;;;;;7.20;1.60;;;;;;;1.36;67.62;100295.00;5074167;28;20079;-44
2023/04/25 05:00:20;;;;;;;2.58;1.17;;;;;;;1.34;67.96;100292.38;5067512;28;20079;-44
2023/04/25 05:02:47;;;;;;;3.00;1.58;;;;;;;1.38;68.58;100293.38;5065608;28;20048;-47
2023/04/25 05:05:14;;;;;;;5.22;1.48;;;;;;;1.38;68.74;100293.38;5066264;28;20130;-46
2023/04/25 05:07:41;;;;;;;2.20;1.17;;;;;;;1.40;67.57;100291.75;5065198;28;20688;-45
2023/04/25 05:10:08;;;;;;;3.00;0.95;;;;;;;1.42;67.94;100300.38;5070246;28;20082;-44
2023/04/25 05:12:34;;;;;;;4.15;0.68;;;;;;;1.44;67.26;100296.16;5065580;28;20423;-47
2023/04/25 05:15:02;;;;;;;4.30;1.27;;;;;;;1.44;68.56;100308.94;5067454;28;20044;-44
2023/04/25 05:17:29;;;;;;;4.05;0.90;;;;;;;1.48;68.96;100310.78;5065877;28;20068;-44
2023/04/25 05:19:56;;;;;;;7.47;1.58;;;;;;;1.49;67.90;100316.78;5070640;28;20052;-47
2023/04/25 05:22:23;;;;;;;7.47;0.75;;;;;;;1.51;69.18;100320.25;5067416;28;20056;-42
2023/04/25 05:24:51;;;;;;;3.95;0.80;;;;;;;1.54;68.48;100328.03;5066603;28;20094;-43
2023/04/25 05:27:21;;;;;;;5.57;1.23;;;;;;;1.57;67.80;100340.03;5056334;28;20044;-41
2023/04/25 05:29:48;;;;;;;4.68;1.10;;;;;;;1.57;68.88;100334.94;5066638;28;20048;-42
2023/04/25 05:32:15;;;;;;;3.33;1.00;;;;;;;1.62;68.24;100333.44;5065744;28;20052;-45
2023/04/25 05:34:41;;;;;;;2.58;1.17;;;;;;;1.71;68.14;100328.69;5048200;28;20045;-44
2023/04/25 05:37:08;;;;;;;7.05;1.75;;;;;;;1.80;67.92;100333.25;5066968;28;20193;-46
2023/04/25 05:39:35;;;;;;;1.75;0.50;;;;;;;1.85;69.15;100335.97;5059789;28;20883;-42
2023/04/25 05:42:01;;;;;;;5.07;1.42;;;;;;;1.85;68.72;100341.09;5056603;28;20088;-43
2023/04/25 05:44:28;;;;;;;7.95;1.17;;;;;;;1.83;69.15;100338.50;5062891;28;20044;-42
2023/04/25 05:46:55;;;;;;;8.60;1.67;;;;;;;1.88;67.42;100341.19;5059590;28;20055;-45
2023/04/25 05:49:21;;;;;;;1.48;1.38;;;;;;;1.83;68.94;100345.28;5064619;28;20083;-45
2023/04/25 05:51:48;;;;;;;5.10;1.48;;;;;;;1.90;68.23;100344.69;5064680;28;20052;-47
2023/04/25 05:54:15;;;;;;;1.15;0.70;;;;;;;1.92;69.33;100348.16;5063483;28;20046;-45
2023/04/25 05:56:41;;;;;;;1.75;0.68;;;;;;;1.95;67.94;100342.31;5062404;28;20051;-45
2023/04/25 05:59:08;;;;;;;1.55;0.70;;;;;;;1.98;68.36;100338.19;5062435;28;20044;-44
2023/04/25 06:01:35;;;;;;;3.83;0.70;;;;;;;2.03;69.30;100349.44;5059198;28;20083;-43
2023/04/25 06:04:01;;;;;;;1.33;0.60;;;;;;;2.06;68.51;100356.34;5048035;28;20396;-43
2023/04/25 06:06:28;;;;;;;6.53;1.08;;;;;;;2.11;68.11;100364.19;5046270;28;20060;-42
2023/04/25 06:08:55;;;;;;;2.45;0.93;;;;;;;2.16;68.25;100362.69;5046714;28;20582;-45
2023/04/25 06:11:22;;;;;;;2.40;0.60;;;;;;;2.17;68.26;100359.31;5043624;28;20508;-42
2023/04/25 06:13:48;;;;;;;2.25;0.95;;;;;;;2.24;67.92;100368.94;5045136;28;20492;-45
2023/04/25 06:16:15;;;;;;;5.57;0.77;;;;;;;2.30;68.73;100366.59;5042840;28;20136;-42
2023/04/25 06:18:42;;;;;;;5.20;1.38;;;;;;;2.36;68.38;100370.22;5026112;28;20163;-41
2023/04/25 06:21:09;;;;;;;4.47;2.13;;;;;;;2.42;68.09;100375.53;5041606;28;20174;-44
2023/04/25 06:23:35;;;;;;;3.28;0.82;;;;;;;2.47;68.62;100368.91;5038417;28;20098;-47
2023/04/25 06:26:02;;;;;;;1.05;0.70;;;;;;;2.51;68.44;100375.88;5034287;28;20119;-42
2023/04/25 06:28:29;;;;;;;1.20;0.77;;;;;;;2.59;68.33;100382.91;5044732;28;20500;-42
2023/04/25 06:30:55;;;;;;;7.93;1.30;;;;;;;2.62;67.60;100377.91;5047878;28;20080;-46
2023/04/25 06:33:24;;;;;;;4.20;1.15;;;;;;;2.69;68.65;100379.88;5062936;28;20098;-44
2023/04/25 06:35:50;;;;;;;2.42;1.33;;;;;;;2.77;68.63;100378.44;5064974;28;20055;-44
2023/04/25 06:38:17;;;;;;;7.38;0.88;;;;;;;3.12;68.21;100370.25;5058707;28;20140;-44
2023/04/25 06:40:43;;;;;;;3.05;0.75;;;;;;;3.67;68.28;100377.94;5049629;28;20053;-45
2023/04/25 06:43:10;;;;;;;5.88;1.17;;;;;;;4.23;66.68;100371.00;5047725;28;20220;-46
2023/04/25 06:45:37;;;;;;;3.03;0.50;;;;;;;4.72;66.36;100370.59;5048472;28;20056;-44
2023/04/25 06:48:03;;;;;;;3.40;0.93;;;;;;;5.12;64.89;100376.78;5047556;28;20241;-44
2023/04/25 06:50:30;;;;;;;6.65;1.65;;;;;;;5.50;64.96;100383.66;5047060;28;20113;-43
2023/04/25 06:52:57;;;;;;;5.97;1.27;;;;;;;5.92;63.48;100392.31;5050098;28;20071;-41
2023/04/25 06:55:23;;;;;;;2.58;0.50;;;;;;;6.27;63.51;100403.34;5049901;28;20535;-42
2023/04/25 06:57:50;;;;;;;2.58;0.73;;;;;;;6.57;62.82;100391.94;5053828;28;20041;-44
2023/04/25 07:00:17;;;;;;;2.97;0.95;;;;;;;6.85;61.10;100402.75;5043088;28;20045;-42
2023/04/25 07:02:44;;;;;;;7.25;1.35;;;;;;;7.16;61.81;100398.13;5045392;28;20053;-44
2023/04/25 07:05:10;;;;;;;6.07;1.58;;;;;;;7.44;59.88;100398.59;5051735;28;20049;-43
2023/04/25 07:07:37;;;;;;;3.90;0.80;;;;;;;7.70;59.18;100405.84;5050037;28;20752;-44
2023/04/25 07:10:05;;;;;;;3.33;0.82;;;;;;;7.96;59.26;100412.22;5047925;28;20420;-42
2023/04/25 07:12:31;;;;;;;3.90;0.80;;;;;;;8.28;59.02;100413.50;5067094;28;20047;-47
2023/04/25 07:14:58;;;;;;;2.28;0.93;;;;;;;8.49;58.21;100412.91;5071684;28;20197;-42
2023/04/25 07:17:25;;;;;;;11.48;1.67;;;;;;;8.80;58.00;100407.25;5071655;28;20803;-42
2023/04/25 07:19:51;;;;;;;5.13;1.63;;;;;;;8.98;57.16;100415.19;5069083;28;20045;-45
2023/04/25 07:22:18;;;;;;;6.20;0.73;;;;;;;9.18;57.07;100409.31;5073761;28;20048;-44
2023/04/25 07:24:48;;;;;;;1.92;0.63;;;;;;;9.51;56.34;100407.88;5077794;28;20144;-46
2023/04/25 07:27:15;;;;;;;;;;;;;;;9.81;56.41;100409.78;5087891;28;20039;-43
2023/04/25 07:29:42;;;;;;;4.40;0.63;;;;;;;10.06;55.24;100412.53;5068806;28;19939;-46
2023/04/25 07:32:09;;;;;;;3.17;1.08;;;;;;;10.26;54.58;100418.66;5067758;28;20102;-46
2023/04/25 07:34:38;;;;;;;4.18;1.10;;;;;;;10.54;54.30;100417.94;5071106;28;20044;-48
2023/04/25 07:37:05;;;;;;;8.23;3.30;;;;;;;10.78;54.24;100411.94;5077311;28;20098;-43
2023/04/25 07:39:32;;;;;;;2.33;0.82;;;;;;;11.00;53.45;100421.50;5072655;28;20040;-45
2023/04/25 07:41:58;;;;;;;4.50;1.17;;;;;;;11.24;53.00;100425.84;5070181;28;20055;-44
2023/04/25 07:44:25;;;;;;;2.75;1.45;;;;;;;11.36;51.09;100429.31;5066947;28;20044;-44
2023/04/25 07:46:52;;;;;;;4.90;1.65;;;;;;;11.46;51.46;100425.84;5073762;28;20075;-46
2023/04/25 07:49:18;;;;;;;4.07;1.08;;;;;;;11.62;50.83;100436.22;5065624;28;20067;-50
2023/04/25 07:51:45;;;;;;;2.00;0.88;;;;;;;11.77;50.54;100443.13;5069490;28;20057;-43
2023/04/25 07:54:14;;;;;;;2.63;1.27;;;;;;;11.99;50.47;100441.34;5070062;28;20072;-47
2023/04/25 07:56:41;;;;;;;2.80;0.90;;;;;;;12.13;49.83;100443.94;5077111;28;20041;-45
2023/04/25 07:59:18;;;;;;;2.35;0.82;;;;;;;12.28;48.84;100443.03;5064570;28;20044;-45
2023/04/25 08:01:45;;;;;;;3.10;0.90;;;;;;;12.49;49.65;100451.59;5067833;28;20056;-46
2023/04/25 08:04:11;;;;;;;2.50;1.08;;;;;;;12.68;49.21;100455.00;5067645;28;20127;-45
2023/04/25 08:06:38;;;;;;;2.38;1.35;;;;;;;12.72;48.18;100458.44;5064723;28;20415;-44
2023/04/25 08:09:06;;;;;;;4.85;1.08;;;;;;;12.94;48.58;100458.31;5045788;28;20075;-46
2023/04/25 08:11:32;;;;;;;1.98;1.00;;;;;;;13.14;47.68;100460.78;5064196;28;20037;-47
2023/04/25 08:13:59;;;;;;;5.35;1.85;;;;;;;13.16;47.83;100465.97;5067551;28;20099;-45
2023/04/25 08:16:26;;;;;;;6.55;1.67;;;;;;;13.31;47.79;100463.25;5073111;28;20499;-46
2023/04/25 08:18:52;;;;;;;3.55;1.50;;;;;;;13.35;46.73;100470.16;5068831;28;20048;-46
2023/04/25 08:21:20;;;;;;;3.60;1.75;;;;;;;13.55;46.64;100474.41;5074166;28;20612;-46
2023/04/25 08:23:46;;;;;;;2.10;0.93;;;;;;;13.81;46.47;100475.91;5066237;28;20116;-47
2023/04/25 08:26:13;;;;;;;2.75;0.68;;;;;;;13.95;46.00;100475.75;5069362;28;20037;-47
2023/04/25 08:28:39;;;;;;;4.80;1.70;;;;;;;14.10;45.96;100471.28;5068118;28;20170;-45
2023/04/25 08:31:06;;;;;;;2.55;1.67;;;;;;;14.14;45.22;100471.25;5069791;28;20487;-46
2023/04/25 08:33:33;;;;;;;5.47;1.30;;;;;;;14.32;45.41;100478.88;5070449;28;20539;-45
2023/04/25 08:35:59;;;;;;;3.80;1.13;;;;;;;14.43;44.64;100487.44;5071144;28;20558;-46
2023/04/25 08:38:26;;;;;;;3.40;0.60;;;;;;;14.52;43.74;100487.31;5070366;28;20066;-46
2023/04/25 08:40:55;;;;;;;1.60;0.60;;;;;;;14.66;43.57;100483.69;5075020;28;20044;-44
2023/04/25 08:43:23;;;;;;;3.30;0.95;;;;;;;14.93;44.33;100485.97;5076054;28;20059;-47
2023/04/25 08:45:53;;;;;;;4.07;1.10;;;;;;;15.28;43.87;100492.41;5049573;28;20074;-45
2023/04/25 08:48:21;;;;;;;2.20;0.75;;;;;;;15.60;43.86;100498.03;5071717;28;20052;-46
2023/04/25 08:50:51;;;;;;;3.15;1.65;;;;;;;15.96;43.89;100489.59;5049749;28;20079;-47
2023/04/25 08:53:21;;;;;;;;;;;;;;;16.08;43.18;100485.91;5091174;28;20113;-46
2023/04/25 08:55:49;;;;;;;1.65;0.85;;;;;;;16.32;42.68;100488.03;5067623;28;19921;-46
2023/04/25 08:58:18;;;;;;;7.40;1.55;;;;;;;16.34;41.88;100479.31;5049420;28;20472;-44
2023/04/25 09:00:47;;;;;;;2.75;1.27;;;;;;;16.32;41.35;100481.97;5049988;28;20502;-46
2023/04/25 09:03:14;;;;;;;6.18;1.73;;;;;;;16.18;40.85;100480.47;5066201;28;20047;-49
2023/04/25 09:05:41;;;;;;;5.13;0.95;;;;;;;16.10;40.84;100477.16;5074805;28;20570;-47
2023/04/25 09:08:11;;;;;;;3.33;1.25;;;;;;;16.22;40.23;100490.88;5070378;28;20055;-45
2023/04/25 09:10:37;;;;;;;3.50;1.05;;;;;;;16.19;39.77;100487.41;5070807;28;20596;-45
2023/04/25 09:15:57;;;;;;;4.35;1.50;;;;;;;16.39;41.27;100482.69;5064900;27;20403;-47
2023/04/25 09:21:10;;;;;;;2.75;1.60;;;;;;;16.73;39.95;100475.91;5024623;27;20402;-46
2023/04/25 09:23:44;;;;;;;3.33;0.90;;;;;;;16.73;39.54;100474.16;5018755;28;20140;-45
2023/04/25 09:26:15;;;;;;;3.38;1.25;;;;;;;16.69;40.02;100469.88;5031844;28;20058;-44
2023/04/25 09:28:42;;;;;;;5.90;1.10;;;;;;;16.70;40.12;100475.09;5018977;28;20046;-46
2023/04/25 09:31:11;;;;;;;3.00;0.80;;;;;;;16.82;39.42;100480.94;5018486;28;20050;-54
2023/04/25 09:33:38;;;;;;;2.88;1.08;;;;;;;17.01;40.29;100470.91;5019194;28;20141;-46
2023/04/25 09:36:07;;;;;;;2.63;1.20;;;;;;;17.23;40.07;100480.06;5016290;28;20658;-45
2023/04/25 09:38:43;;;;;;;2.20;0.70;;;;;;;17.47;39.33;100479.47;5016848;28;20046;-44
2023/04/25 09:41:11;;;;;;;2.47;0.98;;;;;;;17.70;38.66;100475.41;5011433;28;20115;-45
2023/04/25 09:43:39;;;;;;;3.08;1.15;;;;;;;17.71;37.21;100471.91;5010344;28;20136;-42
2023/04/25 09:46:11;;;;;;;2.80;1.20;;;;;;;17.54;37.21;100477.56;5019453;28;20049;-53
2023/04/25 09:48:38;;;;;;;2.45;0.98;;;;;;;17.44;37.96;100474.31;5012754;28;20078;-42
2023/04/25 09:53:50;;;;;;;6.50;1.92;;;;;;;17.32;38.91;100477.22;5049228;27;20882;-42
2023/04/25 09:56:19;;;;;;;3.95;2.35;;;;;;;17.08;38.17;100466.44;5033732;28;20528;-46
2023/04/25 09:58:47;;;;;;;3.00;1.88;;;;;;;16.75;37.89;100466.28;5033691;28;20155;-46
2023/04/25 10:01:16;;;;;;;6.43;2.38;;;;;;;16.56;37.89;100466.66;5020338;28;20045;-44
2023/04/25 10:03:45;;;;;;;2.75;1.85;;;;;;;16.65;38.79;100463.84;5053188;28;20047;-44
2023/04/25 10:06:14;;;;;;;3.17;1.02;;;;;;;16.76;38.07;100458.41;5050731;28;21223;-46
2023/04/25 10:08:41;;;;;;;6.00;2.95;;;;;;;16.85;37.69;100469.56;5038851;28;20045;-46
2023/04/25 10:11:08;;;;;;;5.80;2.45;;;;;;;16.89;37.97;100469.44;5039724;28;20100;-45
2023/04/25 10:13:35;;;;;;;4.07;2.35;;;;;;;16.95;37.88;100466.69;5030320;28;20584;-45
2023/04/25 10:16:04;;;;;;;2.97;2.05;;;;;;;17.06;37.46;100468.25;5039551;28;20045;-44
2023/04/25 10:18:32;;;;;;;4.70;2.25;;;;;;;16.93;38.05;100471.06;5035498;28;20046;-44
2023/04/25 10:21:03;;;;;;;4.40;2.40;;;;;;;16.58;37.68;100467.47;5031893;28;20108;-44
2023/04/25 10:23:31;;;;;;;4.32;2.83;;;;;;;16.17;37.49;100465.69;5032462;28;20057;-43
2023/04/25 10:25:59;;;;;;;4.20;2.13;;;;;;;15.78;37.82;100470.72;5030487;28;20128;-46
2023/04/25 10:28:26;;;;;;;7.18;2.42;;;;;;;15.49;38.15;100475.56;5030585;28;20058;-43
2023/04/25 10:31:05;;;;;;;3.28;2.22;;;;;;;15.47;38.39;100464.28;5035095;28;20041;-46
2023/04/25 10:33:38;;;;;;;5.18;2.08;;;;;;;15.60;38.77;100459.69;5032060;28;20080;-45
2023/04/25 10:38:54;;;;;;;4.57;1.17;;;;;;;15.65;38.01;100459.63;5023081;28;20932;-45
2023/04/25 10:41:22;;;;;;;4.30;1.20;;;;;;;15.94;38.74;100472.16;5011360;28;20054;-44
2023/04/25 10:43:59;;;;;;;4.45;1.25;;;;;;;16.28;37.90;100475.09;5023672;28;20049;-44
2023/04/25 10:46:30;;;;;;;7.38;1.63;;;;;;;16.56;37.70;100479.75;5025238;28;20906;-45
2023/04/25 10:49:02;;;;;;;6.40;1.13;;;;;;;16.57;36.45;100465.78;5016899;28;20061;-46
2023/04/25 10:51:41;;;;;;;;;;;;;;;16.28;36.17;100468.09;5011343;28;20072;-45
2023/04/25 10:54:22;;;;;;;2.58;1.02;;;;;;;16.05;36.67;100472.00;5022006;28;19922;-46
2023/04/25 10:56:50;;;;;;;3.88;0.95;;;;;;;15.78;36.98;100471.56;5010128;28;20486;-47
2023/04/25 10:59:19;;;;;;;2.35;1.17;;;;;;;15.63;37.13;100472.72;5023441;28;20516;-46
2023/04/25 11:01:47;;;;;;;4.13;1.05;;;;;;;15.68;37.11;100473.50;5037884;28;20069;-43
2023/04/25 11:04:28;;;;;;;4.13;0.95;;;;;;;15.75;37.32;100469.03;5029182;28;20052;-41
2023/04/25 11:09:34;;;;;;;3.60;1.42;;;;;;;15.63;36.84;100464.88;5038072;28;20428;-47
2023/04/25 11:12:02;;;;;;;4.53;1.13;;;;;;;15.48;36.71;100470.34;4990628;28;20058;-44
2023/04/25 11:14:30;;;;;;;1.83;1.27;;;;;;;15.29;36.72;100473.25;4980010;28;20375;-46
2023/04/25 11:17:00;;;;;;;4.32;1.35;;;;;;;15.31;38.01;100471.50;4974562;28;20046;-45
2023/04/25 11:19:29;;;;;;;;;;;;;;;15.30;37.52;100474.97;4981993;28;20057;-45
2023/04/25 11:21:57;;;;;;;2.35;1.02;;;;;;;15.25;37.78;100472.47;4983578;28;19977;-46
2023/04/25 11:27:05;;;;;;;8.68;3.08;;;;;;;14.61;36.87;100475.03;5022962;28;20418;-49
2023/04/25 11:29:33;;;;;;;6.00;2.67;;;;;;;14.53;37.33;100472.56;5016995;28;20050;-45
2023/04/25 11:32:01;;;;;;;4.50;2.55;;;;;;;14.63;37.82;100479.34;5020471;28;20111;-51
2023/04/25 11:34:30;;;;;;;7.13;2.72;;;;;;;14.75;37.37;100473.13;5022500;28;20544;-43
2023/04/25 11:36:57;;;;;;;6.90;2.47;;;;;;;14.59;37.58;100469.84;5018642;28;20057;-48
2023/04/25 11:39:24;;;;;;;3.63;2.95;;;;;;;14.79;38.10;100463.53;5005348;28;20132;-48
2023/04/25 11:41:52;;;;;;;5.85;2.78;;;;;;;15.06;38.39;100453.59;5020094;28;20136;-45
2023/04/25 11:44:19;;;;;;;2.70;2.38;;;;;;;15.03;37.02;100466.72;5029492;28;20801;-48
2023/04/25 11:46:46;;;;;;;6.70;3.05;;;;;;;14.77;36.70;100465.31;5023504;28;20508;-44
2023/04/25 11:49:15;;;;;;;4.97;3.95;;;;;;;14.58;37.44;100460.31;5024034;28;20127;-46